Time;durP1;ratioP1;P1;durP2;ratioP2;P2;SDS_P1;SDS_P2;PMS_P1;PMS_P2;Temp;Humidity;BMP_temperature;BMP_pressure;BME280_temperature;BME280_humidity;BME280_pressure;Samples;Min_cycle;Max_cycle;Signal;HPM_P1;HPM_P2
2022/05/22 00:00:26;;;;;;;29.65;20.33;;;13.90;99.90;;;;;;5018008;28;20109;-70
2022/05/22 00:02:53;;;;;;;24.90;16.30;;;13.80;99.90;;;;;;5015114;28;20024;-70
2022/05/22 00:05:22;;;;;;;28.85;17.17;;;13.90;99.90;;;;;;5028769;28;20033;-71
2022/05/22 00:07:49;;;;;;;22.13;16.55;;;13.90;99.90;;;;;;5029963;28;20025;-70
2022/05/22 00:10:17;;;;;;;25.30;16.95;;;14.00;99.90;;;;;;5014424;28;20061;-70
2022/05/22 00:12:45;;;;;;;28.98;18.08;;;14.00;99.90;;;;;;5019613;28;20025;-70
2022/05/22 00:15:15;;;;;;;26.45;15.82;;;14.10;99.90;;;;;;5028941;28;20120;-70
2022/05/22 00:17:44;;;;;;;22.05;15.98;;;14.10;99.90;;;;;;5024524;28;20021;-70
2022/05/22 00:20:12;;;;;;;29.52;14.98;;;14.10;99.90;;;;;;5013853;28;20026;-70
2022/05/22 00:22:40;;;;;;;20.05;14.13;;;14.10;99.90;;;;;;5022550;28;20037;-70
2022/05/22 00:25:10;;;;;;;22.02;13.45;;;14.10;99.90;;;;;;5029863;28;20026;-70
2022/05/22 00:27:39;;;;;;;20.90;12.75;;;14.00;99.90;;;;;;5013582;28;20486;-70
2022/05/22 00:30:07;;;;;;;20.83;12.77;;;14.10;99.90;;;;;;5024252;28;20486;-70
2022/05/22 00:32:35;;;;;;;14.93;12.30;;;14.20;99.90;;;;;;5027550;28;20025;-70
2022/05/22 00:35:03;;;;;;;21.00;12.07;;;14.20;99.90;;;;;;5016056;28;20181;-70
2022/05/22 00:37:31;;;;;;;23.00;12.45;;;14.20;99.90;;;;;;5021064;28;20053;-69
2022/05/22 00:39:59;;;;;;;21.05;12.70;;;14.20;99.90;;;;;;5013645;28;20397;-69
2022/05/22 00:42:36;;;;;;;27.42;13.13;;;14.20;99.90;;;;;;5019519;28;20037;-68
2022/05/22 00:45:05;;;;;;;14.07;12.10;;;14.20;99.90;;;;;;5026518;28;20116;-68
2022/05/22 00:47:32;;;;;;;15.50;11.10;;;14.20;99.90;;;;;;5018801;28;20030;-68
2022/05/22 00:50:02;;;;;;;15.13;10.32;;;14.30;99.90;;;;;;5023592;28;20038;-70
2022/05/22 00:52:36;;;;;;;17.92;11.88;;;14.30;99.90;;;;;;5028926;28;20033;-70
2022/05/22 00:55:20;;;;;;;23.90;12.50;;;14.40;99.90;;;;;;5023761;28;20152;-68
2022/05/22 00:57:52;;;;;;;17.70;12.45;;;14.40;99.90;;;;;;5017464;28;20057;-68
2022/05/22 01:00:22;;;;;;;21.40;12.40;;;14.50;99.90;;;;;;5021921;28;20515;-68
2022/05/22 01:05:36;;;;;;;13.93;10.15;;;14.40;99.90;;;;;;5012678;28;20445;-70
2022/05/22 01:08:04;;;;;;;23.27;10.90;;;14.50;99.90;;;;;;5017064;28;20101;-70
2022/05/22 01:10:56;;;;;;;17.88;10.23;;;14.60;99.90;;;;;;5016672;28;20038;-70
2022/05/22 01:13:34;;;;;;;19.58;10.30;;;14.50;99.90;;;;;;5022329;28;20083;-70
2022/05/22 01:16:04;;;;;;;20.20;9.40;;;14.50;99.90;;;;;;5029385;28;20033;-70
2022/05/22 01:18:40;;;;;;;12.93;7.95;;;14.60;99.90;;;;;;5023481;28;20159;-69
2022/05/22 01:21:16;;;;;;;13.55;6.97;;;14.70;99.90;;;;;;5024245;28;20025;-69
2022/05/22 01:23:43;;;;;;;12.23;6.97;;;14.80;99.90;;;;;;5015815;28;20022;-69
2022/05/22 01:26:11;;;;;;;15.73;8.65;;;14.80;99.90;;;;;;5012144;28;20030;-69
2022/05/22 01:28:39;;;;;;;14.75;6.60;;;14.80;99.90;;;;;;5023008;28;20132;-69
2022/05/22 01:31:06;;;;;;;20.25;6.80;;;15.00;99.90;;;;;;5024210;28;20103;-70
2022/05/22 01:33:38;;;;;;;12.52;5.13;;;14.90;99.90;;;;;;5019751;28;20026;-69
2022/05/22 01:36:06;;;;;;;9.88;4.50;;;15.00;99.90;;;;;;5022694;28;20631;-69
2022/05/22 01:38:34;;;;;;;13.93;5.35;;;15.00;99.90;;;;;;5019767;28;20033;-69
2022/05/22 01:41:02;;;;;;;12.63;4.35;;;15.00;99.90;;;;;;5030370;28;20040;-69
2022/05/22 01:43:30;;;;;;;12.43;4.38;;;15.00;99.90;;;;;;5026371;28;20018;-69
2022/05/22 01:45:57;;;;;;;14.95;4.53;;;15.10;99.90;;;;;;5036175;28;20025;-69
2022/05/22 01:48:25;;;;;;;18.10;4.65;;;15.10;99.90;;;;;;5026677;28;20125;-69
2022/05/22 01:50:52;;;;;;;10.43;4.38;;;15.20;99.90;;;;;;5016250;28;20065;-69
2022/05/22 01:53:22;;;;;;;9.27;4.35;;;15.20;99.90;;;;;;5016715;28;20081;-69
2022/05/22 01:55:50;;;;;;;10.95;3.85;;;15.10;99.90;;;;;;5016403;28;20029;-69
2022/05/22 01:58:18;;;;;;;10.30;4.85;;;15.20;99.90;;;;;;5017123;28;20038;-69
2022/05/22 02:00:46;;;;;;;11.20;4.82;;;15.30;99.90;;;;;;5016335;28;20034;-69
2022/05/22 02:03:13;;;;;;;10.77;5.43;;;15.20;99.90;;;;;;5030901;28;20037;-69
2022/05/22 02:05:43;;;;;;;11.00;5.38;;;15.30;99.90;;;;;;5036228;28;20033;-69
2022/05/22 02:08:22;;;;;;;11.60;4.78;;;15.40;99.90;;;;;;5024007;28;20116;-69
2022/05/22 02:10:55;;;;;;;5.90;3.33;;;15.50;99.90;;;;;;5016110;28;20037;-69
2022/05/22 02:13:26;;;;;;;6.13;3.75;;;15.60;99.90;;;;;;5016659;28;20105;-69
2022/05/22 02:15:54;;;;;;;12.07;3.78;;;15.40;99.90;;;;;;5032613;28;20477;-69
2022/05/22 02:18:22;;;;;;;7.72;3.40;;;15.50;99.90;;;;;;5021778;28;20081;-69
2022/05/22 02:20:49;;;;;;;5.80;2.53;;;15.60;99.90;;;;;;5030826;28;20041;-69
2022/05/22 02:23:18;;;;;;;8.98;2.78;;;15.70;99.90;;;;;;5034186;28;20034;-69
2022/05/22 02:25:49;;;;;;;9.40;3.63;;;15.70;99.90;;;;;;5035566;28;20021;-69
2022/05/22 02:28:17;;;;;;;9.93;4.05;;;15.80;99.90;;;;;;5023392;28;20049;-69
2022/05/22 02:30:50;;;;;;;7.68;4.10;;;15.90;99.90;;;;;;5035429;28;20112;-69
2022/05/22 02:33:17;;;;;;;10.30;3.55;;;15.70;99.90;;;;;;5031695;28;20104;-69
2022/05/22 02:35:45;;;;;;;8.52;3.42;;;15.80;99.90;;;;;;5032527;28;20445;-69
2022/05/22 02:38:13;;;;;;;9.82;4.40;;;15.80;99.90;;;;;;5022246;28;20544;-69
2022/05/22 02:40:40;;;;;;;14.27;4.72;;;15.80;99.90;;;;;;5015543;28;20034;-69
2022/05/22 02:43:08;;;;;;;9.05;3.13;;;15.90;99.90;;;;;;5026073;28;20026;-69
2022/05/22 02:45:39;;;;;;;9.52;2.90;;;15.90;99.90;;;;;;5015270;28;20536;-68
2022/05/22 02:48:07;;;;;;;9.95;2.83;;;15.90;99.90;;;;;;5021769;28;20034;-69
2022/05/22 02:50:35;;;;;;;6.30;2.42;;;16.00;99.90;;;;;;5033897;28;20068;-69
2022/05/22 02:53:03;;;;;;;8.10;2.30;;;16.10;99.90;;;;;;5022364;28;20077;-69
2022/05/22 02:55:30;;;;;;;5.05;2.22;;;16.30;99.90;;;;;;5015271;28;20037;-69
2022/05/22 02:57:57;;;;;;;5.20;2.15;;;16.30;99.90;;;;;;5016266;28;20437;-69
2022/05/22 03:00:30;;;;;;;4.63;0.85;;;16.40;99.90;;;;;;5015228;28;20025;-69
2022/05/22 03:02:58;;;;;;;3.63;0.77;;;16.20;99.90;;;;;;5015748;28;20076;-69
2022/05/22 03:06:37;;;;;;;3.20;0.80;;;16.00;99.90;;;;;;5014937;28;20025;-69
2022/05/22 03:08:15;;;;;;;3.45;0.40;;;15.90;99.90;;;;;;5027420;28;20026;-69
2022/05/22 03:10:44;;;;;;;4.97;0.43;;;15.90;99.90;;;;;;5035068;28;20056;-69
2022/05/22 03:13:13;;;;;;;8.05;3.70;;;16.10;99.90;;;;;;5033098;28;20030;-69
2022/05/22 03:15:41;;;;;;;3.03;0.70;;;16.20;99.90;;;;;;5034776;28;20087;-69
2022/05/22 03:18:08;;;;;;;10.30;2.47;;;16.30;99.90;;;;;;5031380;28;20025;-69
2022/05/22 03:20:36;;;;;;;5.15;0.80;;;16.40;99.90;;;;;;5033354;28;20091;-69
2022/05/22 03:23:03;;;;;;;3.75;0.30;;;16.60;99.90;;;;;;5022455;28;20076;-69
2022/05/22 03:25:30;;;;;;;2.83;0.40;;;16.70;99.90;;;;;;5028985;28;20018;-69
2022/05/22 03:27:58;;;;;;;3.10;0.20;;;16.90;99.90;;;;;;5023169;28;20034;-69
2022/05/22 03:30:26;;;;;;;5.25;0.43;;;17.10;99.90;;;;;;5014437;28;20026;-69
2022/05/22 03:32:56;;;;;;;1.88;0.35;;;17.20;99.90;;;;;;5014628;28;20060;-69
2022/05/22 03:35:27;;;;;;;3.42;0.28;;;17.20;99.90;;;;;;5027298;28;20025;-69
2022/05/22 03:37:54;;;;;;;1.35;0.22;;;17.30;99.90;;;;;;5030829;28;20040;-69
2022/05/22 03:40:22;;;;;;;1.70;0.50;;;17.40;99.90;;;;;;5022125;28;20068;-69
2022/05/22 03:42:49;;;;;;;5.07;1.00;;;17.50;99.90;;;;;;5025090;28;20028;-70
2022/05/22 03:45:19;;;;;;;11.00;0.93;;;17.70;99.90;;;;;;5032121;28;20033;-69
2022/05/22 03:47:47;;;;;;;5.88;1.02;;;17.80;99.90;;;;;;5019259;28;20018;-69
2022/05/22 03:50:15;;;;;;;10.60;1.55;;;17.80;99.90;;;;;;5012832;28;20112;-68
2022/05/22 03:52:47;;;;;;;8.35;1.40;;;17.90;99.90;;;;;;5025041;28;20516;-69
2022/05/22 03:55:15;;;;;;;6.57;1.02;;;18.10;99.90;;;;;;5032137;28;20220;-69
2022/05/22 03:57:47;;;;;;;7.28;0.98;;;18.50;99.90;;;;;;5024659;28;20022;-69
2022/05/22 04:00:17;;;;;;;2.38;0.47;;;18.60;99.90;;;;;;5031712;28;20389;-69
2022/05/22 04:02:45;;;;;;;1.90;0.50;;;18.30;99.90;;;;;;5030322;28;20470;-68
2022/05/22 04:05:12;;;;;;;2.58;0.45;;;18.20;99.90;;;;;;5034037;28;20379;-69
2022/05/22 04:07:43;;;;;;;4.78;0.50;;;18.20;99.90;;;;;;5025143;28;20113;-70
2022/05/22 04:10:12;;;;;;;2.45;0.50;;;18.20;99.90;;;;;;5014004;28;20056;-69
2022/05/22 04:12:43;;;;;;;1.55;0.20;;;18.20;99.90;;;;;;5014045;28;20034;-69
2022/05/22 04:15:16;;;;;;;1.55;0.30;;;18.10;99.90;;;;;;5013480;28;20053;-69
2022/05/22 04:17:43;;;;;;;2.87;0.20;;;18.10;99.90;;;;;;5016125;28;20418;-69
2022/05/22 04:20:11;;;;;;;3.33;0.15;;;18.10;99.90;;;;;;5012516;28;20022;-69
2022/05/22 04:25:11;;;;;;;4.63;0.70;;;18.10;99.90;;;;;;5013810;28;20076;-69
2022/05/22 04:25:26;;;;;;;3.10;0.10;;;18.00;99.90;;;;;;5019057;28;20057;-69
2022/05/22 04:27:53;;;;;;;1.75;0.20;;;17.90;99.90;;;;;;5022645;28;20109;-69
2022/05/22 04:30:21;;;;;;;1.13;0.10;;;17.90;99.90;;;;;;5029733;28;20041;-69
2022/05/22 04:32:50;;;;;;;8.70;0.50;;;17.90;99.90;;;;;;5030967;28;20033;-69
2022/05/22 04:35:18;;;;;;;3.13;0.30;;;17.90;99.90;;;;;;5019924;28;20034;-69
2022/05/22 04:37:46;;;;;;;2.08;0.30;;;17.80;99.90;;;;;;5015129;28;20034;-69
2022/05/22 04:40:13;;;;;;;1.10;0.17;;;17.80;99.90;;;;;;5013399;28;20489;-69
2022/05/22 04:42:41;;;;;;;2.08;0.20;;;17.80;99.90;;;;;;5013459;28;20041;-69
2022/05/22 04:45:11;;;;;;;2.35;0.25;;;17.80;99.90;;;;;;5013507;28;20040;-69
2022/05/22 04:47:41;;;;;;;2.58;0.30;;;17.90;99.90;;;;;;5013415;28;20037;-69
2022/05/22 04:50:10;;;;;;;0.95;0.20;;;17.90;99.90;;;;;;5026616;28;20416;-69
2022/05/22 04:52:37;;;;;;;3.53;0.45;;;17.90;99.90;;;;;;5024426;28;20118;-69
2022/05/22 04:55:06;;;;;;;4.40;0.45;;;17.90;99.90;;;;;;5021844;28;20025;-68
2022/05/22 04:57:33;;;;;;;4.28;0.50;;;17.80;99.90;;;;;;5023248;28;20026;-69
2022/05/22 05:00:01;;;;;;;4.25;0.55;;;17.90;99.90;;;;;;5010677;28;20109;-70
2022/05/22 05:02:28;;;;;;;4.82;0.75;;;17.80;99.90;;;;;;5025333;28;20022;-68
2022/05/22 05:04:57;;;;;;;2.60;0.35;;;17.80;99.90;;;;;;5012874;28;20102;-70
2022/05/22 05:07:25;;;;;;;2.83;0.63;;;17.90;99.90;;;;;;5013412;28;20504;-69
2022/05/22 05:09:52;;;;;;;3.00;0.85;;;17.80;99.90;;;;;;5012646;28;20053;-69
2022/05/22 05:12:20;;;;;;;1.40;0.20;;;17.80;99.90;;;;;;5019210;28;20026;-69
2022/05/22 05:14:47;;;;;;;3.70;0.55;;;17.70;99.90;;;;;;5012452;28;20019;-69
2022/05/22 05:17:17;;;;;;;4.97;0.30;;;17.70;99.90;;;;;;5025492;28;20041;-68
2022/05/22 05:19:45;;;;;;;2.50;0.20;;;17.70;99.90;;;;;;5011660;28;20021;-69
2022/05/22 05:22:13;;;;;;;2.03;0.20;;;17.70;99.90;;;;;;5012940;28;20022;-69
2022/05/22 05:24:41;;;;;;;3.03;0.40;;;17.70;99.90;;;;;;5011179;28;20439;-69
2022/05/22 05:27:08;;;;;;;1.65;0.20;;;17.70;99.90;;;;;;5013019;28;20517;-68
2022/05/22 05:29:35;;;;;;;1.30;0.40;;;17.70;99.90;;;;;;5015773;28;20033;-69
2022/05/22 05:32:03;;;;;;;2.92;0.40;;;17.70;99.90;;;;;;5021936;28;20117;-69
2022/05/22 05:34:30;;;;;;;3.17;0.30;;;17.60;99.90;;;;;;5026229;28;20032;-69
2022/05/22 05:36:57;;;;;;;0.73;0.22;;;17.60;99.90;;;;;;5021087;28;20025;-68
2022/05/22 05:39:27;;;;;;;2.63;0.32;;;17.60;99.90;;;;;;5019844;28;20416;-69
2022/05/22 05:41:58;;;;;;;3.05;0.40;;;17.60;99.90;;;;;;5023480;28;20092;-68
2022/05/22 05:44:25;;;;;;;2.03;0.45;;;17.60;99.90;;;;;;5026148;28;20442;-68
2022/05/22 05:46:52;;;;;;;0.95;0.10;;;17.50;99.90;;;;;;5032051;28;20504;-68
2022/05/22 05:49:22;;;;;;;1.27;0.20;;;17.50;99.90;;;;;;5020903;28;20034;-68
2022/05/22 05:51:53;;;;;;;3.60;0.38;;;17.50;99.90;;;;;;5017747;28;20037;-67
2022/05/22 05:54:20;;;;;;;3.38;0.50;;;17.50;99.90;;;;;;5022645;28;20453;-68
2022/05/22 05:56:49;;;;;;;4.40;0.80;;;17.50;99.90;;;;;;5016813;28;20047;-68
2022/05/22 05:59:16;;;;;;;4.70;0.40;;;17.40;99.90;;;;;;5014125;28;20549;-69
2022/05/22 06:01:43;;;;;;;1.25;0.20;;;17.40;99.90;;;;;;5023980;28;20033;-68
2022/05/22 06:04:10;;;;;;;2.13;0.50;;;17.40;99.90;;;;;;5015617;28;20389;-68
2022/05/22 06:06:38;;;;;;;2.90;0.50;;;17.40;99.90;;;;;;5021574;28;20076;-68
2022/05/22 06:09:05;;;;;;;5.40;0.50;;;17.30;99.90;;;;;;5011883;28;20033;-69
2022/05/22 06:11:33;;;;;;;3.58;0.47;;;17.30;99.90;;;;;;5014543;28;20084;-69
2022/05/22 06:14:00;;;;;;;1.35;0.38;;;17.20;99.90;;;;;;5031192;28;20580;-69
2022/05/22 06:16:28;;;;;;;5.57;0.77;;;17.20;99.90;;;;;;5020821;28;20026;-69
2022/05/22 06:18:56;;;;;;;2.70;0.52;;;17.20;99.90;;;;;;5031807;28;20020;-68
2022/05/22 06:21:23;;;;;;;1.80;0.25;;;17.20;99.90;;;;;;5029191;28;20096;-68
2022/05/22 06:23:51;;;;;;;4.88;0.32;;;17.20;99.90;;;;;;5018229;28;20030;-69
2022/05/22 06:26:20;;;;;;;7.13;1.05;;;17.20;99.90;;;;;;5033263;28;20056;-69
2022/05/22 06:28:48;;;;;;;3.75;0.50;;;17.10;99.90;;;;;;5033005;28;20029;-69
2022/05/22 06:31:15;;;;;;;4.45;0.32;;;17.10;99.90;;;;;;5023361;28;20045;-69
2022/05/22 06:33:43;;;;;;;2.45;0.60;;;17.20;99.90;;;;;;5035484;28;20029;-69
2022/05/22 06:36:16;;;;;;;7.88;1.23;;;17.20;99.90;;;;;;5032217;28;20049;-69
2022/05/22 06:41:28;;;;;;;3.70;0.40;;;17.10;99.90;;;;;;5029638;28;20075;-69
2022/05/22 06:43:57;;;;;;;1.67;0.30;;;17.10;99.90;;;;;;5033044;28;20527;-69
2022/05/22 06:46:31;;;;;;;5.10;0.30;;;17.00;99.90;;;;;;5030499;28;20021;-69
2022/05/22 06:48:59;;;;;;;1.70;0.77;;;17.00;99.90;;;;;;5015226;28;20037;-69
2022/05/22 06:51:27;;;;;;;4.60;0.35;;;17.00;99.90;;;;;;5014222;28;20133;-69
2022/05/22 06:53:54;;;;;;;3.05;0.40;;;16.90;99.90;;;;;;5013630;28;20045;-69
2022/05/22 06:56:21;;;;;;;3.20;0.32;;;16.90;99.90;;;;;;5030998;28;20034;-71
2022/05/22 06:58:48;;;;;;;3.38;0.52;;;16.80;99.90;;;;;;5032637;28;20026;-69
2022/05/22 07:01:17;;;;;;;1.95;0.80;;;16.80;99.90;;;;;;5031588;28;20041;-69
2022/05/22 07:03:44;;;;;;;7.63;0.93;;;16.80;99.90;;;;;;5033724;28;20018;-69
2022/05/22 07:06:11;;;;;;;4.95;1.25;;;16.70;99.90;;;;;;5025452;28;20392;-69
2022/05/22 07:08:39;;;;;;;7.18;1.55;;;16.60;99.90;;;;;;5032201;28;20033;-69
2022/05/22 07:13:52;;;;;;;7.82;1.13;;;16.50;99.90;;;;;;5025518;28;20053;-69
2022/05/22 07:16:19;;;;;;;6.32;1.60;;;16.40;99.90;;;;;;5014984;28;20052;-69
2022/05/22 07:18:46;;;;;;;8.93;1.10;;;16.20;99.90;;;;;;5014478;28;20594;-69
2022/05/22 07:21:14;;;;;;;7.57;1.20;;;16.20;99.90;;;;;;5024152;28;20162;-69
2022/05/22 07:23:41;;;;;;;5.40;1.15;;;16.10;99.90;;;;;;5024470;28;20095;-69
2022/05/22 07:26:08;;;;;;;8.55;1.40;;;16.10;99.90;;;;;;5029971;28;20544;-71
2022/05/22 07:28:36;;;;;;;5.63;1.90;;;16.00;99.90;;;;;;5031911;28;20394;-69
2022/05/22 07:31:03;;;;;;;8.48;1.40;;;15.90;99.90;;;;;;5027123;28;20108;-69
2022/05/22 07:33:30;;;;;;;6.35;0.73;;;15.90;99.90;;;;;;5033356;28;20573;-69
2022/05/22 07:35:59;;;;;;;4.55;1.08;;;15.90;99.90;;;;;;5031504;28;20025;-69
2022/05/22 07:38:27;;;;;;;4.90;1.77;;;15.90;99.90;;;;;;5033180;28;20025;-69
2022/05/22 07:40:54;;;;;;;8.55;1.42;;;15.80;99.90;;;;;;5033198;28;20505;-69
2022/05/22 07:43:22;;;;;;;7.25;1.50;;;15.80;99.90;;;;;;5033918;28;20025;-69
2022/05/22 07:45:49;;;;;;;5.05;0.80;;;15.80;99.90;;;;;;5029543;28;20453;-69
2022/05/22 07:48:17;;;;;;;3.97;1.23;;;15.70;99.90;;;;;;5012925;28;20028;-69
2022/05/22 07:50:44;;;;;;;10.73;1.75;;;15.70;99.90;;;;;;5026264;28;20041;-69
2022/05/22 07:53:11;;;;;;;8.35;1.35;;;15.60;99.90;;;;;;5021429;28;20505;-69
2022/05/22 07:55:41;;;;;;;7.10;0.95;;;15.60;99.90;;;;;;5028007;28;20117;-69
2022/05/22 07:58:09;;;;;;;8.27;1.20;;;15.60;99.90;;;;;;5024046;28;20040;-69
2022/05/22 08:00:36;;;;;;;9.15;1.95;;;15.60;99.90;;;;;;5023529;28;20033;-69
2022/05/22 08:03:16;;;;;;;8.70;4.18;;;15.60;99.90;;;;;;5026303;28;20029;-69
2022/05/22 08:05:43;;;;;;;5.07;2.33;;;15.60;99.90;;;;;;5025642;28;20109;-69
2022/05/22 08:08:11;;;;;;;4.65;1.50;;;15.60;99.90;;;;;;5021981;28;20541;-69
2022/05/22 08:10:40;;;;;;;5.40;0.80;;;15.60;99.90;;;;;;5026937;28;20038;-69
2022/05/22 08:13:10;;;;;;;3.70;0.75;;;15.50;99.90;;;;;;5013774;28;20068;-69
2022/05/22 08:15:39;;;;;;;10.50;2.47;;;15.50;99.90;;;;;;5026699;28;20057;-69
2022/05/22 08:18:07;;;;;;;12.80;1.92;;;15.50;99.90;;;;;;5013198;28;20034;-69
2022/05/22 08:20:36;;;;;;;11.68;2.25;;;15.50;99.90;;;;;;5012960;28;20034;-69
2022/05/22 08:23:08;;;;;;;3.88;0.63;;;15.50;99.90;;;;;;5015533;28;20119;-69
2022/05/22 08:25:36;;;;;;;6.15;0.80;;;15.50;99.90;;;;;;5024144;28;20519;-69
2022/05/22 08:28:04;;;;;;;4.60;1.35;;;15.40;99.90;;;;;;5027797;28;20030;-69
2022/05/22 08:30:32;;;;;;;7.78;1.55;;;15.40;99.90;;;;;;5014554;28;20438;-69
2022/05/22 08:33:01;;;;;;;7.55;1.13;;;15.30;99.90;;;;;;5026006;28;20018;-69
2022/05/22 08:35:32;;;;;;;10.55;1.85;;;15.20;99.90;;;;;;5031601;28;20564;-69
2022/05/22 08:38:00;;;;;;;5.63;1.60;;;15.20;99.90;;;;;;5030742;28;20509;-69
2022/05/22 08:40:36;;;;;;;9.15;1.10;;;15.20;99.90;;;;;;5016122;28;20026;-69
2022/05/22 08:43:14;;;;;;;5.50;0.70;;;15.10;99.90;;;;;;5030945;28;20033;-69
2022/05/22 08:45:45;;;;;;;4.38;0.65;;;15.00;99.90;;;;;;5031329;28;20021;-69
2022/05/22 08:48:48;;;;;;;1.73;0.73;;;15.00;99.90;;;;;;5020684;28;20061;-69
2022/05/22 08:51:37;;;;;;;7.45;1.10;;;15.00;99.90;;;;;;5017518;28;20042;-68
2022/05/22 08:54:14;;;;;;;3.63;0.60;;;15.00;99.90;;;;;;5019195;28;20046;-68
2022/05/22 08:59:34;;;;;;;7.60;0.90;;;14.90;99.90;;;;;;5025358;28;20401;-68
2022/05/22 09:02:17;;;;;;;3.95;1.13;;;14.90;99.90;;;;;;5030378;28;20044;-69
2022/05/22 09:05:05;;;;;;;4.40;0.80;;;14.80;99.90;;;;;;5021521;28;20478;-69
2022/05/22 09:07:58;;;;;;;3.95;0.50;;;14.80;99.90;;;;;;5016122;28;20025;-68
2022/05/22 09:10:44;;;;;;;6.50;0.70;;;14.80;99.90;;;;;;5013014;28;20042;-68
2022/05/22 09:13:27;;;;;;;5.22;0.75;;;14.80;99.90;;;;;;5022638;28;20479;-68
2022/05/22 09:16:17;;;;;;;5.10;0.88;;;14.80;99.90;;;;;;5032481;28;20034;-68
2022/05/22 09:18:54;;;;;;;4.55;0.40;;;14.90;99.90;;;;;;5025961;28;20038;-69
2022/05/22 09:21:32;;;;;;;5.55;0.98;;;14.80;99.90;;;;;;5021561;28;20144;-68
2022/05/22 09:24:17;;;;;;;5.38;0.95;;;14.80;99.90;;;;;;5025204;28;20026;-68
2022/05/22 09:26:58;;;;;;;5.00;0.85;;;14.90;99.90;;;;;;5013470;28;20022;-68
2022/05/22 09:29:32;;;;;;;8.35;0.90;;;14.80;99.90;;;;;;5019459;28;20038;-68
2022/05/22 09:32:17;;;;;;;7.03;2.25;;;14.80;99.90;;;;;;5031015;28;20036;-68
2022/05/22 09:34:59;;;;;;;5.28;1.42;;;14.80;99.90;;;;;;5015957;28;20033;-69
2022/05/22 09:37:39;;;;;;;7.18;1.58;;;14.90;99.90;;;;;;5026704;28;20061;-68
2022/05/22 09:40:24;;;;;;;4.88;1.50;;;14.90;99.90;;;;;;5016161;28;20026;-68
2022/05/22 09:43:15;;;;;;;4.38;1.00;;;14.90;99.90;;;;;;5028447;28;20030;-68
2022/05/22 09:46:19;;;;;;;6.65;1.20;;;15.00;99.90;;;;;;5016341;28;20057;-68
2022/05/22 09:49:10;;;;;;;7.47;1.85;;;15.00;99.90;;;;;;5023707;28;20052;-68
2022/05/22 09:52:14;;;;;;;12.25;2.17;;;15.00;99.90;;;;;;5019732;28;20084;-68
2022/05/22 09:54:53;;;;;;;4.18;1.50;;;15.00;99.90;;;;;;5021266;28;20112;-69
2022/05/22 09:57:26;;;;;;;4.95;1.42;;;14.90;99.90;;;;;;5018237;28;20029;-69
2022/05/22 10:00:12;;;;;;;2.95;0.65;;;14.80;99.90;;;;;;5025713;28;20482;-69
2022/05/22 10:02:51;;;;;;;8.20;1.17;;;14.70;99.90;;;;;;5015838;28;20426;-69
2022/05/22 10:05:24;;;;;;;6.05;1.15;;;14.70;99.90;;;;;;5023026;28;20053;-68
2022/05/22 10:08:15;;;;;;;6.93;1.10;;;14.80;99.90;;;;;;5032442;28;20060;-69
2022/05/22 10:10:52;;;;;;;4.13;1.38;;;14.80;99.90;;;;;;5018475;28;20029;-69
2022/05/22 10:13:25;;;;;;;5.78;0.90;;;14.80;99.90;;;;;;5021335;28;20017;-68
2022/05/22 10:16:22;;;;;;;3.53;0.93;;;14.60;99.90;;;;;;5015348;28;20086;-68
2022/05/22 10:19:30;;;;;;;5.10;0.95;;;14.60;99.90;;;;;;5015520;28;20087;-69
2022/05/22 10:22:15;;;;;;;4.75;1.10;;;14.60;99.90;;;;;;5035923;28;20095;-68
2022/05/22 10:25:21;;;;;;;7.10;1.50;;;14.40;99.90;;;;;;5034099;28;20045;-69
2022/05/22 10:27:56;;;;;;;4.43;1.55;;;14.50;99.90;;;;;;5014177;28;20471;-68
2022/05/22 10:30:37;;;;;;;6.15;1.75;;;14.50;99.90;;;;;;5017135;28;20029;-69
2022/05/22 10:33:39;;;;;;;4.53;0.80;;;14.60;99.90;;;;;;5016344;28;20034;-68
2022/05/22 10:36:25;;;;;;;2.42;0.77;;;14.30;99.90;;;;;;5029833;28;20112;-69
2022/05/22 10:39:13;;;;;;;3.17;0.75;;;14.30;99.90;;;;;;5028068;28;20695;-69
2022/05/22 10:44:38;;;;;;;4.55;0.90;;;14.10;99.90;;;;;;5034331;28;20032;-68
2022/05/22 10:47:05;;;;;;;3.13;0.60;;;14.20;99.90;;;;;;5030105;28;20473;-69
2022/05/22 10:49:40;;;;;;;4.60;1.15;;;14.20;99.90;;;;;;5028607;28;20033;-69
2022/05/22 10:52:07;;;;;;;;;;;14.20;99.90;;;;;;5032166;28;20091;-69
2022/05/22 10:54:47;;;;;;;4.03;0.98;;;14.10;99.90;;;;;;5021224;28;19913;-68
2022/05/22 10:57:26;;;;;;;2.83;1.15;;;14.10;99.90;;;;;;5014686;28;20018;-68
2022/05/22 10:59:54;;;;;;;4.65;0.80;;;14.10;99.90;;;;;;5014837;28;20030;-68
2022/05/22 11:02:32;;;;;;;6.30;1.08;;;14.00;99.90;;;;;;5015813;28;20049;-68
2022/05/22 11:05:01;;;;;;;5.63;0.63;;;13.90;99.90;;;;;;5019667;28;20029;-68
2022/05/22 11:07:34;;;;;;;3.92;0.57;;;13.90;99.90;;;;;;5020302;28;20026;-69
2022/05/22 11:10:16;;;;;;;3.73;1.17;;;13.80;99.90;;;;;;5017075;28;20066;-69
2022/05/22 11:12:44;;;;;;;3.95;0.90;;;13.80;99.90;;;;;;5021717;28;20026;-68
2022/05/22 11:15:15;;;;;;;5.85;1.13;;;13.90;99.90;;;;;;5029630;28;20467;-68
2022/05/22 11:17:43;;;;;;;2.83;0.60;;;13.90;99.90;;;;;;5019946;28;20025;-68
2022/05/22 11:20:19;;;;;;;7.25;1.00;;;13.90;99.90;;;;;;5020504;28;20029;-69
2022/05/22 11:23:11;;;;;;;2.97;1.20;;;13.80;99.90;;;;;;5022838;28;20386;-68
2022/05/22 11:26:06;;;;;;;2.38;0.75;;;13.90;99.90;;;;;;5021875;28;20071;-68
2022/05/22 11:28:58;;;;;;;3.07;0.50;;;13.90;99.90;;;;;;5015405;28;20034;-68
2022/05/22 11:31:34;;;;;;;2.72;1.23;;;13.80;99.90;;;;;;5013707;28;20042;-68
2022/05/22 11:34:11;;;;;;;1.55;0.65;;;13.80;99.90;;;;;;5014507;28;20026;-68
2022/05/22 11:36:45;;;;;;;2.30;0.80;;;13.80;99.90;;;;;;5029969;28;20033;-68
2022/05/22 11:39:36;;;;;;;3.17;0.80;;;13.70;99.90;;;;;;5014172;28;20578;-68
2022/05/22 11:42:12;;;;;;;2.67;1.63;;;13.70;99.90;;;;;;5029258;28;20029;-69
2022/05/22 11:44:51;;;;;;;4.50;1.23;;;13.60;99.90;;;;;;5023935;28;20030;-68
2022/05/22 11:47:55;;;;;;;3.70;0.77;;;13.60;99.90;;;;;;5023424;28;20033;-68
2022/05/22 11:50:42;;;;;;;2.13;0.60;;;13.60;99.90;;;;;;5019986;28;20069;-68
2022/05/22 11:53:57;;;;;;;3.72;0.50;;;13.60;99.90;;;;;;5019541;28;20050;-69
2022/05/22 11:56:41;;;;;;;1.55;0.63;;;13.50;99.90;;;;;;5017042;28;20045;-68
2022/05/22 11:59:27;;;;;;;2.15;0.45;;;13.50;99.90;;;;;;5022364;28;20029;-68
2022/05/22 12:02:07;;;;;;;2.15;0.70;;;13.50;99.90;;;;;;5013407;28;20140;-68
2022/05/22 12:04:45;;;;;;;3.47;0.50;;;13.50;99.90;;;;;;5017192;28;20136;-68
2022/05/22 12:07:49;;;;;;;2.25;0.40;;;13.50;99.90;;;;;;5021818;28;20022;-68
2022/05/22 12:10:32;;;;;;;4.18;0.60;;;13.40;99.90;;;;;;5024827;28;20136;-68
2022/05/22 12:13:17;;;;;;;2.55;0.65;;;13.50;99.90;;;;;;5018003;28;20022;-68
2022/05/22 12:15:55;;;;;;;4.00;0.90;;;13.40;99.90;;;;;;5011319;28;20022;-68
2022/05/22 12:18:40;;;;;;;3.67;0.68;;;13.40;99.90;;;;;;5014618;28;20029;-68
2022/05/22 12:21:35;;;;;;;3.63;0.70;;;13.40;99.90;;;;;;5018341;28;20042;-68
2022/05/22 12:24:22;;;;;;;3.30;0.80;;;13.40;99.90;;;;;;5017161;28;20083;-68
2022/05/22 12:26:51;;;;;;;4.10;0.80;;;13.40;99.90;;;;;;5012948;28;20029;-68
2022/05/22 12:29:27;;;;;;;4.10;0.95;;;13.40;99.90;;;;;;5028545;28;20026;-68
2022/05/22 12:31:57;;;;;;;2.92;0.70;;;13.40;99.90;;;;;;5020458;28;20033;-68
2022/05/22 12:34:43;;;;;;;3.22;0.63;;;13.40;99.90;;;;;;5017670;28;20033;-68
2022/05/22 12:37:17;;;;;;;3.70;0.70;;;13.40;99.90;;;;;;5016038;28;20064;-68
2022/05/22 12:39:53;;;;;;;8.40;1.05;;;13.40;99.90;;;;;;5030781;28;20087;-68
2022/05/22 12:42:43;;;;;;;4.53;0.70;;;13.30;99.90;;;;;;5022342;28;20033;-68
2022/05/22 12:45:10;;;;;;;4.78;0.93;;;13.30;99.90;;;;;;5015619;28;20037;-68
2022/05/22 12:47:49;;;;;;;7.28;1.63;;;13.30;99.90;;;;;;5019550;28;20025;-68
2022/05/22 12:50:35;;;;;;;3.75;0.70;;;13.30;99.90;;;;;;5023437;28;20026;-68
2022/05/22 12:53:02;;;;;;;8.25;1.20;;;13.30;99.90;;;;;;5013496;28;20056;-68
2022/05/22 12:55:33;;;;;;;7.82;1.80;;;13.30;99.90;;;;;;5016413;28;20033;-68
2022/05/22 12:58:03;;;;;;;6.10;1.23;;;13.30;99.90;;;;;;5018686;28;20021;-68
2022/05/22 13:00:40;;;;;;;2.83;1.08;;;13.30;99.90;;;;;;5023742;28;20100;-68
2022/05/22 13:03:27;;;;;;;7.00;1.45;;;13.30;99.90;;;;;;5023708;28;20037;-68
2022/05/22 13:06:22;;;;;;;4.80;1.10;;;13.30;99.90;;;;;;5015410;28;20022;-68
2022/05/22 13:09:04;;;;;;;2.17;0.60;;;13.30;99.90;;;;;;5018770;28;20069;-68
2022/05/22 13:11:57;;;;;;;4.35;0.80;;;13.30;99.90;;;;;;5012386;28;20025;-68
2022/05/22 13:14:31;;;;;;;5.82;0.88;;;13.30;99.90;;;;;;5023917;28;20040;-68
2022/05/22 13:17:00;;;;;;;4.00;0.65;;;13.30;99.90;;;;;;5018384;28;20029;-68
2022/05/22 13:19:30;;;;;;;6.72;2.22;;;13.30;99.90;;;;;;5024257;28;20025;-68
2022/05/22 13:22:08;;;;;;;8.98;1.75;;;13.30;99.90;;;;;;5032066;28;20099;-68
2022/05/22 13:24:38;;;;;;;7.95;2.78;;;13.30;99.90;;;;;;5012814;28;20542;-68
2022/05/22 13:27:30;;;;;;;4.70;1.80;;;13.30;99.90;;;;;;5020631;28;20068;-69